createdAt,value
2018-04-15T00:00:44.633Z,144.13
2018-04-15T00:03:11.427Z,144.13
2018-04-15T00:05:39.216Z,152.03
2018-04-15T00:08:06.070Z,173.33
2018-04-15T00:10:32.890Z,179.07
2018-04-15T00:13:01.586Z,171.00
2018-04-15T00:15:28.656Z,165.00
2018-04-15T00:17:56.506Z,149.27
2018-04-15T00:20:23.348Z,163.03
2018-04-15T00:22:51.083Z,140.33
2018-04-15T00:25:17.931Z,138.00
2018-04-15T00:27:44.789Z,144.10
2018-04-15T00:30:11.636Z,137.63
2018-04-15T00:32:39.371Z,134.20
2018-04-15T00:35:08.114Z,148.47
2018-04-15T00:37:35.845Z,132.97
2018-04-15T00:42:56.533Z,143.33
2018-04-15T00:45:25.269Z,128.10
2018-04-15T00:47:52.101Z,148.57
2018-04-15T00:50:36.007Z,147.63
2018-04-15T00:53:20.975Z,142.43
2018-04-15T00:58:34.145Z,135.30
2018-04-15T01:01:01.951Z,133.77
2018-04-15T01:03:46.824Z,132.77
2018-04-15T01:06:19.338Z,139.37
2018-04-15T01:08:48.087Z,134.07
2018-04-15T01:11:15.721Z,135.53
2018-04-15T01:13:59.683Z,138.77
2018-04-15T01:16:38.257Z,142.07
2018-04-15T01:19:15.299Z,135.20
2018-04-15T01:21:47.326Z,141.83
2018-04-15T01:24:30.936Z,151.10
2018-04-15T01:27:04.330Z,138.17
2018-04-15T01:29:37.644Z,143.40
2018-04-15T01:32:04.518Z,154.60
2018-04-15T01:34:31.343Z,151.83
2018-04-15T01:37:07.406Z,149.23
2018-04-15T01:39:34.243Z,145.60
2018-04-15T01:42:04.156Z,150.40
2018-04-15T01:44:31.960Z,162.87
2018-04-15T01:46:59.694Z,154.13
2018-04-15T01:49:27.470Z,155.47
2018-04-15T01:52:05.962Z,151.33
2018-04-15T01:54:42.986Z,141.97
2018-04-15T01:57:09.848Z,156.37
2018-04-15T01:59:37.615Z,187.93
2018-04-15T02:02:12.698Z,192.77
2018-04-15T02:07:24.860Z,160.07
2018-04-15T02:09:53.535Z,170.83
2018-04-15T02:12:22.210Z,147.53
2018-04-15T02:14:50.003Z,162.83
2018-04-15T02:17:18.666Z,171.77
2018-04-15T02:19:45.497Z,170.43
2018-04-15T02:22:15.752Z,157.60
2018-04-15T02:24:48.404Z,159.87
2018-04-15T02:27:21.442Z,171.80
2018-04-15T02:29:52.531Z,173.73
2018-04-15T02:32:22.788Z,181.93
2018-04-15T02:35:06.364Z,183.83
2018-04-15T02:40:18.672Z,159.33
2018-04-15T02:42:46.409Z,176.03
2018-04-15T02:45:13.230Z,177.83
2018-04-15T02:47:40.999Z,179.47
2018-04-15T02:50:08.772Z,164.57
2018-04-15T02:52:36.554Z,171.47
2018-04-15T02:57:49.006Z,158.13
2018-04-15T03:00:15.797Z,181.80
2018-04-15T03:02:44.465Z,167.90
2018-04-15T03:05:11.339Z,163.97
2018-04-15T03:07:41.553Z,166.13
2018-04-15T03:10:08.397Z,150.63
2018-04-15T03:12:41.697Z,153.13
2018-04-15T03:15:09.459Z,153.57
2018-04-15T03:17:39.365Z,144.03
2018-04-15T03:20:06.238Z,140.73
2018-04-15T03:22:34.900Z,137.83
2018-04-15T03:25:20.667Z,142.93
2018-04-15T03:27:52.855Z,126.03
2018-04-15T03:30:22.804Z,128.60
2018-04-15T03:32:49.634Z,131.63
2018-04-15T03:35:22.266Z,134.63
2018-04-15T03:37:50.093Z,124.53
2018-04-15T03:43:02.510Z,149.43
2018-04-15T03:48:16.782Z,129.33
2018-04-15T03:50:43.611Z,134.53
2018-04-15T03:56:04.304Z,130.57
2018-04-15T03:58:43.986Z,128.03
2018-04-15T04:01:14.613Z,135.30
2018-04-15T04:03:42.373Z,121.27
2018-04-15T04:06:09.238Z,122.97
2018-04-15T04:08:36.052Z,127.30
2018-04-15T04:11:05.971Z,129.73
2018-04-15T04:13:32.841Z,114.47
2018-04-15T04:15:59.671Z,110.17
2018-04-15T04:18:33.318Z,119.63
2018-04-15T04:21:12.061Z,122.23
2018-04-15T04:23:50.607Z,106.83
2018-04-15T04:26:22.986Z,107.03
2018-04-15T04:28:49.861Z,102.67
2018-04-15T04:31:16.677Z,101.93
2018-04-15T04:33:43.553Z,94.13
2018-04-15T04:36:11.308Z,89.43
2018-04-15T04:38:39.043Z,78.73
2018-04-15T04:41:07.759Z,78.70
2018-04-15T04:43:38.255Z,72.23
2018-04-15T04:46:14.012Z,73.70
2018-04-15T04:48:40.885Z,69.10
2018-04-15T04:51:07.722Z,65.67
2018-04-15T04:53:34.570Z,66.47
2018-04-15T04:56:04.801Z,72.03
2018-04-15T04:58:31.684Z,61.30
2018-04-15T05:01:00.331Z,62.17
2018-04-15T05:03:32.061Z,57.17
2018-04-15T05:05:58.890Z,54.70
2018-04-15T05:08:35.271Z,55.43
2018-04-15T05:11:07.330Z,53.33
2018-04-15T05:13:38.497Z,50.70
2018-04-15T05:16:09.317Z,44.63
2018-04-15T05:18:42.302Z,49.37
2018-04-15T05:21:14.382Z,49.10
2018-04-15T05:23:55.251Z,41.03
2018-04-15T05:29:14.233Z,47.60
2018-04-15T05:31:46.650Z,40.93
2018-04-15T05:34:13.448Z,36.87
2018-04-15T05:36:40.292Z,37.47
2018-04-15T05:39:10.585Z,34.50
2018-04-15T05:41:39.216Z,34.40
2018-04-15T05:44:06.069Z,35.53
2018-04-15T05:46:42.800Z,27.63
2018-04-15T05:49:11.744Z,27.63
2018-04-15T05:51:38.549Z,28.53
2018-04-15T05:54:10.338Z,32.30
2018-04-15T05:56:41.230Z,26.53
2018-04-15T05:59:09.094Z,26.70
2018-04-15T06:01:42.206Z,26.00
2018-04-15T06:04:12.438Z,27.43
2018-04-15T06:06:39.343Z,26.40
2018-04-15T06:09:08.048Z,27.30
2018-04-15T06:11:34.810Z,23.90
2018-04-15T06:14:20.627Z,22.67
2018-04-15T06:17:08.182Z,20.40
2018-04-15T06:19:40.784Z,22.87
2018-04-15T06:24:53.272Z,19.70
2018-04-15T06:27:27.628Z,17.27
2018-04-15T06:29:54.306Z,24.90
2018-04-15T06:32:21.588Z,16.17
2018-04-15T06:34:49.222Z,17.60
2018-04-15T06:37:16.980Z,15.93
2018-04-15T06:39:44.794Z,13.87
2018-04-15T06:42:11.665Z,13.90
2018-04-15T06:44:38.464Z,14.63
2018-04-15T06:47:05.265Z,12.27
2018-04-15T06:49:38.876Z,12.83
2018-04-15T06:52:22.856Z,13.40
2018-04-15T06:54:54.403Z,12.63
2018-04-15T06:57:23.119Z,11.77
2018-04-15T06:59:49.906Z,14.67
2018-04-15T07:02:16.742Z,11.30
2018-04-15T07:04:43.612Z,11.27
2018-04-15T07:07:14.113Z,13.77
2018-04-15T07:09:41.036Z,12.43
2018-04-15T07:12:08.747Z,13.40
2018-04-15T07:14:36.508Z,10.83
2018-04-15T07:17:03.378Z,11.77
2018-04-15T07:19:32.041Z,9.30
2018-04-15T07:21:59.789Z,13.57
2018-04-15T07:24:34.345Z,11.57
2018-04-15T07:27:07.277Z,10.53
2018-04-15T07:29:35.089Z,9.37
2018-04-15T07:32:01.913Z,10.27
2018-04-15T07:34:28.763Z,12.60
2018-04-15T07:36:55.628Z,9.40
2018-04-15T07:39:25.511Z,9.53
2018-04-15T07:41:52.365Z,8.60
2018-04-15T07:44:35.697Z,9.37
2018-04-15T07:47:09.083Z,9.07
2018-04-15T07:49:47.597Z,10.80
2018-04-15T07:52:18.809Z,9.03
2018-04-15T07:54:46.527Z,7.47
2018-04-15T07:57:15.245Z,9.97
2018-04-15T07:59:45.427Z,11.30
2018-04-15T08:02:12.144Z,12.27
2018-04-15T08:04:39.785Z,8.43
2018-04-15T08:07:08.427Z,8.57
2018-04-15T08:09:35.271Z,8.40
2018-04-15T08:12:02.143Z,8.00
2018-04-15T08:14:35.988Z,7.77
2018-04-15T08:17:13.785Z,9.30
2018-04-15T08:19:43.550Z,7.57
2018-04-15T08:22:21.120Z,8.90
2018-04-15T08:24:51.348Z,7.47
2018-04-15T08:27:21.928Z,7.47
2018-04-15T08:29:59.440Z,10.07
2018-04-15T08:32:30.316Z,7.83
2018-04-15T08:34:59.052Z,8.90
2018-04-15T08:37:33.934Z,8.87
2018-04-15T08:40:00.687Z,7.47
2018-04-15T08:42:33.044Z,8.20
2018-04-15T08:44:59.924Z,8.97
2018-04-15T08:47:42.010Z,8.33
2018-04-15T08:50:09.902Z,8.73
2018-04-15T08:52:37.618Z,9.07
2018-04-15T08:55:04.518Z,6.97
2018-04-15T08:57:31.347Z,7.03
2018-04-15T08:59:59.134Z,10.20
2018-04-15T09:02:25.928Z,9.07
2018-04-15T09:04:53.720Z,19.37
2018-04-15T09:07:20.526Z,10.40
2018-04-15T09:09:48.360Z,8.27
2018-04-15T09:12:17.022Z,8.93
2018-04-15T09:14:43.865Z,7.93
2018-04-15T09:17:20.857Z,9.00
2018-04-15T09:20:00.122Z,7.53
2018-04-15T09:22:43.875Z,8.10
2018-04-15T09:25:11.842Z,10.13
2018-04-15T09:27:49.037Z,12.20
2018-04-15T09:30:30.522Z,9.43
2018-04-15T09:33:03.016Z,9.40
2018-04-15T09:35:36.021Z,6.30
2018-04-15T09:38:08.052Z,6.33
2018-04-15T09:40:34.901Z,7.33
2018-04-15T09:43:04.843Z,7.93
2018-04-15T09:45:31.663Z,7.57
2018-04-15T09:48:01.879Z,8.03
2018-04-15T09:50:29.661Z,5.67
2018-04-15T09:52:56.525Z,6.43
2018-04-15T09:55:23.333Z,5.97
2018-04-15T09:57:52.018Z,5.93
2018-04-15T10:00:24.726Z,6.83
2018-04-15T10:02:58.647Z,5.90
2018-04-15T10:05:29.504Z,7.10
2018-04-15T10:08:00.898Z,7.57
2018-04-15T10:10:37.885Z,7.30
2018-04-15T10:13:05.654Z,9.90
2018-04-15T10:15:38.348Z,9.47
2018-04-15T10:18:08.567Z,8.10
2018-04-15T10:20:35.415Z,11.53
2018-04-15T10:23:02.251Z,9.67
2018-04-15T10:25:29.108Z,6.63
2018-04-15T10:28:00.244Z,6.20
2018-04-15T10:30:28.027Z,7.30
2018-04-15T10:32:54.827Z,7.40
2018-04-15T10:35:21.723Z,8.47
2018-04-15T10:37:48.525Z,8.33
2018-04-15T10:40:15.415Z,9.50
2018-04-15T10:42:42.216Z,8.27
2018-04-15T10:45:09.064Z,6.37
2018-04-15T10:47:36.849Z,6.60
2018-04-15T10:50:03.689Z,7.47
2018-04-15T10:52:41.869Z,6.40
2018-04-15T10:55:21.026Z,6.83
2018-04-15T10:57:48.800Z,6.73
2018-04-15T11:00:15.622Z,7.27
2018-04-15T11:02:44.343Z,8.33
2018-04-15T11:05:15.788Z,8.77
2018-04-15T11:07:46.935Z,9.70
2018-04-15T11:10:13.756Z,6.20
2018-04-15T11:12:41.606Z,8.70
2018-04-15T11:15:08.370Z,6.03
2018-04-15T11:17:35.205Z,6.37
2018-04-15T11:20:02.151Z,5.60
2018-04-15T11:22:29.826Z,5.90
2018-04-15T11:24:56.670Z,6.50
2018-04-15T11:27:23.523Z,6.43
2018-04-15T11:29:57.124Z,6.57
2018-04-15T11:32:24.899Z,10.10
2018-04-15T11:34:53.571Z,6.27
2018-04-15T11:37:20.433Z,4.80
2018-04-15T11:39:47.248Z,6.00
2018-04-15T11:42:15.957Z,5.37
2018-04-15T11:44:42.823Z,6.53
2018-04-15T11:47:17.293Z,5.27
2018-04-15T11:50:02.773Z,7.53
2018-04-15T11:52:31.596Z,8.17
2018-04-15T11:55:11.813Z,5.57
2018-04-15T11:57:40.621Z,6.43
2018-04-15T12:00:11.184Z,4.63
2018-04-15T12:02:41.981Z,4.00
2018-04-15T12:05:26.255Z,5.67
2018-04-15T12:07:54.115Z,5.63
2018-04-15T12:10:22.825Z,5.53
2018-04-15T12:12:49.651Z,5.37
2018-04-15T12:15:16.485Z,7.53
2018-04-15T12:17:46.741Z,4.70
2018-04-15T12:20:26.040Z,11.60
2018-04-15T12:22:53.960Z,5.67
2018-04-15T12:25:21.687Z,8.43
2018-04-15T12:27:50.378Z,5.50
2018-04-15T12:30:23.349Z,5.50
2018-04-15T12:33:09.433Z,8.50
2018-04-15T12:35:37.118Z,7.00
2018-04-15T12:38:05.689Z,9.63
2018-04-15T12:40:34.474Z,7.70
2018-04-15T12:43:01.237Z,6.63
2018-04-15T12:45:28.082Z,9.97
2018-04-15T12:47:55.878Z,7.00
2018-04-15T12:50:27.940Z,9.67
2018-04-15T12:52:54.765Z,8.23
2018-04-15T12:55:22.715Z,7.93
2018-04-15T12:57:49.400Z,6.53
2018-04-15T13:00:17.132Z,8.00
2018-04-15T13:02:44.057Z,7.77
2018-04-15T13:05:10.820Z,6.97
2018-04-15T13:07:43.487Z,8.43
2018-04-15T13:10:12.226Z,7.40
2018-04-15T13:12:40.044Z,7.07
2018-04-15T13:15:06.786Z,7.60
2018-04-15T13:17:35.504Z,9.33
2018-04-15T13:20:05.385Z,8.53
2018-04-15T13:22:35.034Z,8.10
2018-04-15T13:25:01.860Z,7.07
2018-04-15T13:27:28.691Z,9.30
2018-04-15T13:29:55.566Z,7.37
2018-04-15T13:32:22.370Z,6.90
2018-04-15T13:34:51.114Z,6.43
2018-04-15T13:37:17.948Z,7.67
2018-04-15T13:39:49.371Z,6.43
2018-04-15T13:42:16.198Z,8.17
2018-04-15T13:44:43.096Z,7.20
2018-04-15T13:47:09.890Z,6.63
2018-04-15T13:49:42.566Z,6.47
2018-04-15T13:52:09.424Z,7.07
2018-04-15T13:54:37.226Z,8.30
2018-04-15T13:57:04.974Z,7.57
2018-04-15T13:59:32.704Z,8.13
2018-04-15T14:02:00.488Z,9.23
2018-04-15T14:04:27.362Z,7.63
2018-04-15T14:06:57.850Z,8.60
2018-04-15T14:09:25.614Z,6.50
2018-04-15T14:11:52.586Z,9.00
2018-04-15T14:14:26.044Z,7.33
2018-04-15T14:16:52.915Z,7.60
2018-04-15T14:19:19.749Z,8.23
2018-04-15T14:21:48.481Z,4.77
2018-04-15T14:24:15.289Z,6.53
2018-04-15T14:26:42.157Z,4.83
2018-04-15T14:29:08.974Z,6.27
2018-04-15T14:31:38.984Z,5.50
2018-04-15T14:34:07.570Z,7.87
2018-04-15T14:36:36.312Z,6.60
2018-04-15T14:39:10.480Z,6.23
2018-04-15T14:41:37.328Z,6.30
2018-04-15T14:44:04.242Z,6.53
2018-04-15T14:46:35.635Z,5.33
2018-04-15T14:49:03.391Z,5.83
2018-04-15T14:51:37.002Z,5.30
2018-04-15T14:54:05.715Z,6.70
2018-04-15T14:56:32.524Z,5.10
2018-04-15T14:59:00.327Z,5.50
2018-04-15T15:01:31.145Z,6.00
2018-04-15T15:04:04.161Z,7.47
2018-04-15T15:06:30.961Z,7.83
2018-04-15T15:09:04.257Z,5.77
2018-04-15T15:11:35.079Z,5.23
2018-04-15T15:14:07.792Z,4.63
2018-04-15T15:16:34.607Z,4.47
2018-04-15T15:19:02.431Z,4.87
2018-04-15T15:21:42.001Z,4.80
2018-04-15T15:24:10.809Z,5.77
2018-04-15T15:26:37.681Z,6.03
2018-04-15T15:29:05.451Z,4.07
2018-04-15T15:31:35.950Z,5.13
2018-04-15T15:34:03.759Z,3.83
2018-04-15T15:36:40.385Z,5.50
2018-04-15T15:39:08.159Z,5.90
2018-04-15T15:41:35.013Z,5.27
2018-04-15T15:44:02.794Z,3.97
2018-04-15T15:46:31.478Z,4.70
2018-04-15T15:48:59.251Z,4.17
2018-04-15T15:51:27.928Z,4.80
2018-04-15T15:53:56.597Z,5.83
2018-04-15T15:56:25.300Z,5.50
2018-04-15T15:58:53.075Z,6.27
2018-04-15T16:01:19.894Z,6.90
2018-04-15T16:03:46.741Z,7.20
2018-04-15T16:06:15.461Z,7.07
2018-04-15T16:08:42.343Z,6.57
2018-04-15T16:11:12.846Z,6.87
2018-04-15T16:13:40.613Z,5.53
2018-04-15T16:16:17.377Z,7.87
2018-04-15T16:18:44.087Z,5.50
2018-04-15T16:21:11.223Z,5.63
2018-04-15T16:23:39.945Z,5.53
2018-04-15T16:26:08.603Z,5.77
2018-04-15T16:28:40.858Z,6.60
2018-04-15T16:31:09.680Z,7.70
2018-04-15T16:33:36.572Z,10.20
2018-04-15T16:36:04.298Z,7.47
2018-04-15T16:38:32.075Z,7.27
2018-04-15T16:40:59.829Z,7.10
2018-04-15T16:43:27.579Z,7.10
2018-04-15T16:45:55.335Z,10.23
2018-04-15T16:48:23.121Z,9.17
2018-04-15T16:51:03.032Z,9.13
2018-04-15T16:53:33.711Z,6.80
2018-04-15T16:56:00.549Z,8.30
2018-04-15T16:58:28.309Z,10.80
2018-04-15T17:00:55.210Z,8.17
2018-04-15T17:03:22.904Z,12.20
2018-04-15T17:05:54.392Z,12.83
2018-04-15T17:08:21.207Z,10.67
2018-04-15T17:10:48.039Z,9.90
2018-04-15T17:13:14.926Z,9.67
2018-04-15T17:15:53.097Z,11.00
2018-04-15T17:18:26.397Z,9.87
2018-04-15T17:20:55.085Z,10.37
2018-04-15T17:23:22.866Z,9.17
2018-04-15T17:25:50.640Z,8.27
2018-04-15T17:28:18.413Z,7.50
2018-04-15T17:30:49.540Z,8.10
2018-04-15T17:33:18.225Z,10.93
2018-04-15T17:35:45.095Z,9.60
2018-04-15T17:38:12.860Z,12.73
2018-04-15T17:40:40.742Z,9.30
2018-04-15T17:43:10.802Z,7.93
2018-04-15T17:45:43.538Z,6.93
2018-04-15T17:48:13.480Z,7.97
2018-04-15T17:50:40.246Z,7.47
2018-04-15T17:53:08.977Z,9.20
2018-04-15T17:55:35.825Z,8.37
2018-04-15T17:58:03.563Z,8.80
2018-04-15T18:00:30.398Z,7.83
2018-04-15T18:02:59.162Z,8.27
2018-04-15T18:05:26.875Z,8.37
2018-04-15T18:07:53.733Z,10.00
2018-04-15T18:10:29.168Z,10.93
2018-04-15T18:12:57.844Z,12.43
2018-04-15T18:15:36.018Z,9.43
2018-04-15T18:18:02.896Z,8.40
2018-04-15T18:20:29.740Z,7.17
2018-04-15T18:22:57.502Z,7.07
2018-04-15T18:25:30.150Z,8.20
2018-04-15T18:28:01.688Z,7.83
2018-04-15T18:30:28.460Z,8.40
2018-04-15T18:32:56.248Z,8.10
2018-04-15T18:35:33.531Z,10.23
2018-04-15T18:38:04.059Z,12.23
2018-04-15T18:40:32.744Z,8.10
2018-04-15T18:43:03.298Z,8.30
2018-04-15T18:45:33.478Z,7.33
2018-04-15T18:48:03.833Z,7.77
2018-04-15T18:50:33.619Z,12.37
2018-04-15T18:53:11.514Z,14.47
2018-04-15T18:55:46.365Z,16.13
2018-04-15T18:58:14.161Z,14.43
2018-04-15T19:00:40.986Z,11.00
2018-04-15T19:03:07.832Z,10.37
2018-04-15T19:05:34.683Z,10.80
2018-04-15T19:08:03.374Z,12.30
2018-04-15T19:10:30.196Z,9.03
2018-04-15T19:12:58.939Z,10.30
2018-04-15T19:15:25.721Z,10.07
2018-04-15T19:18:03.023Z,11.17
2018-04-15T19:20:32.958Z,13.27
2018-04-15T19:22:59.773Z,10.60
2018-04-15T19:25:30.017Z,9.43
2018-04-15T19:27:59.939Z,9.10
2018-04-15T19:30:27.033Z,14.07
2018-04-15T19:32:54.610Z,9.10
2018-04-15T19:35:22.374Z,10.17
2018-04-15T19:37:53.183Z,10.63
2018-04-15T19:40:27.342Z,11.10
2018-04-15T19:42:54.292Z,17.07
2018-04-15T19:45:21.030Z,16.30
2018-04-15T19:47:48.809Z,15.20
2018-04-15T19:50:25.855Z,18.63
2018-04-15T19:52:53.055Z,14.90
2018-04-15T19:55:20.149Z,13.60
2018-04-15T19:57:47.971Z,12.40
2018-04-15T20:00:15.738Z,12.30
2018-04-15T20:02:44.237Z,15.33
2018-04-15T20:05:12.986Z,10.57
2018-04-15T20:07:48.107Z,12.07
2018-04-15T20:10:16.889Z,14.10
2018-04-15T20:12:44.594Z,14.00
2018-04-15T20:15:13.277Z,12.17
2018-04-15T20:17:40.160Z,14.67
2018-04-15T20:22:52.916Z,13.63
2018-04-15T20:25:21.526Z,17.23
2018-04-15T20:27:49.307Z,13.67
2018-04-15T20:30:16.175Z,11.73
2018-04-15T20:32:46.489Z,14.33
2018-04-15T20:35:13.446Z,18.57
2018-04-15T20:37:42.240Z,21.70
2018-04-15T20:40:09.118Z,24.13
2018-04-15T20:42:35.891Z,17.50
2018-04-15T20:45:07.961Z,17.17
2018-04-15T20:47:34.833Z,16.07
2018-04-15T20:50:02.654Z,16.47
2018-04-15T20:52:37.673Z,15.23
2018-04-15T20:55:05.542Z,15.80
2018-04-15T20:57:32.324Z,15.00
2018-04-15T21:00:00.096Z,12.93
2018-04-15T21:02:34.885Z,15.70
2018-04-15T21:05:02.725Z,15.50
2018-04-15T21:07:29.516Z,15.93
2018-04-15T21:09:56.345Z,12.23
2018-04-15T21:12:24.158Z,15.53
2018-04-15T21:14:50.959Z,14.43
2018-04-15T21:17:21.503Z,16.90
2018-04-15T21:19:52.409Z,14.83
2018-04-15T21:22:21.029Z,15.03
2018-04-15T21:24:48.879Z,14.83
2018-04-15T21:27:15.650Z,16.87
2018-04-15T21:29:47.420Z,12.53
2018-04-15T21:32:15.189Z,14.70
2018-04-15T21:34:42.925Z,15.00
2018-04-15T21:37:09.792Z,14.23
2018-04-15T21:39:36.631Z,15.60
2018-04-15T21:42:04.392Z,15.47
2018-04-15T21:44:33.118Z,15.37
2018-04-15T21:46:59.900Z,16.80
2018-04-15T21:49:27.701Z,13.13
2018-04-15T21:51:57.926Z,13.50
2018-04-15T21:54:30.578Z,12.87
2018-04-15T21:56:57.425Z,16.57
2018-04-15T21:59:26.128Z,13.33
2018-04-15T22:01:56.052Z,14.80
2018-04-15T22:04:22.873Z,14.67
2018-04-15T22:06:49.711Z,22.07
2018-04-15T22:09:16.592Z,15.53
2018-04-15T22:11:49.383Z,15.17
2018-04-15T22:14:16.120Z,16.93
2018-04-15T22:16:42.913Z,12.37
2018-04-15T22:19:09.764Z,13.43
2018-04-15T22:21:36.629Z,16.97
2018-04-15T22:24:07.757Z,13.90
2018-04-15T22:26:34.621Z,14.37
2018-04-15T22:29:01.772Z,13.70
2018-04-15T22:31:33.517Z,18.43
2018-04-15T22:34:01.275Z,18.07
2018-04-15T22:36:29.970Z,18.03
2018-04-15T22:39:03.245Z,14.30
2018-04-15T22:41:33.489Z,14.73
2018-04-15T22:44:11.043Z,18.33
2018-04-15T22:46:38.270Z,14.90
2018-04-15T22:49:11.755Z,13.87
2018-04-15T22:51:42.071Z,15.43
2018-04-15T22:54:08.907Z,16.87
2018-04-15T22:56:50.363Z,16.17
2018-04-15T22:59:25.599Z,17.23
2018-04-15T23:01:57.706Z,17.47
2018-04-15T23:04:29.763Z,15.17
2018-04-15T23:06:56.607Z,15.40
2018-04-15T23:09:25.319Z,15.00
2018-04-15T23:11:55.812Z,19.53
2018-04-15T23:14:22.663Z,20.23
2018-04-15T23:16:49.629Z,16.37
2018-04-15T23:19:18.545Z,17.50
2018-04-15T23:21:48.449Z,18.40
2018-04-15T23:24:16.431Z,15.23
2018-04-15T23:26:47.337Z,18.10
2018-04-15T23:29:15.135Z,19.07
2018-04-15T23:31:47.509Z,18.20
2018-04-15T23:34:17.392Z,18.37
2018-04-15T23:36:46.077Z,18.13
2018-04-15T23:39:30.978Z,15.03
2018-04-15T23:41:59.731Z,20.27
2018-04-15T23:44:26.586Z,19.13
2018-04-15T23:46:56.522Z,20.27
2018-04-15T23:49:25.187Z,19.73
2018-04-15T23:51:58.178Z,18.83
2018-04-15T23:54:25.026Z,22.13
2018-04-15T23:56:55.709Z,20.47
2018-04-15T23:59:29.150Z,22.63
